Etusivu
METAR-TAF:

METAR-TAF

Lentoasemat :

Ube, Japani

Leveyspiiri: 33-57N, Pituuspiiri: 131-15E, korkeus merenpinnasta: 5 m

Tämänhetkinen sää

Tämä raportti tehtiin 18 minuuttia sitten, kello 12.00 UTC
Tuuli 12 kn lännestä
Lämpötila 19°C
Kosteus 68%
Ilmanpaine 1015 hPa
Näkyvyys 10 km tai enemmän
Muutamia pilviä 2000 ft:n korkeudessa
Hajanaisia pilviä 3000 ft:n korkeudessa
Hajonneita pilviä 5000 ft:n korkeudessa

METAR: RJDC 131200Z 27012KT 9999 FEW020 SCT030 BKN050 19/13 Q1015

Aika: 21:18 (12:18 UTC)


TAF: puuttuu

Säähavainnot ja -ennusteet yli 4000 lentoasemalta (METAR- ja TAF-raportit).

Käytössä olevat sääasemat on merkitty karttaan keltaisilla ja punaisilla pisteillä.

Aseta hiiri pisteen päälle nähdäksesi sääaseman nimen.

Klikkaa sitten nähdäksesi säähavainnot ja -ennusteet.

Kartan vaihtaminen: klikkaa mustalla rastilla varustettuja vihreitä pisteitä, niin voit zoomata sisään; viivalla varustettua vihreää pistettä, niin voit zoomata ulos tai vihreitä nuolia, niin pääset viereisille kartoille.


METAR-TAF: